createdAt,value
2018-06-01T00:04:21.707Z,7.70
2018-06-01T00:09:24.970Z,8.70
2018-06-01T00:14:28.239Z,12.10
2018-06-01T00:19:31.487Z,8.43
2018-06-01T00:24:34.758Z,15.97
2018-06-01T00:29:38.259Z,8.03
2018-06-01T00:34:41.509Z,10.23
2018-06-01T00:39:44.780Z,9.80
2018-06-01T00:44:48.048Z,11.00
2018-06-01T00:49:51.318Z,9.00
2018-06-01T00:55:06.387Z,10.43
2018-06-01T01:00:09.649Z,10.43
2018-06-01T01:05:12.898Z,9.43
2018-06-01T01:10:16.151Z,8.53
2018-06-01T01:15:19.410Z,10.70
2018-06-01T01:20:22.673Z,11.90
2018-06-01T01:25:25.931Z,8.83
2018-06-01T01:30:29.221Z,8.13
2018-06-01T01:35:33.248Z,10.97
2018-06-01T01:40:37.286Z,14.33
2018-06-01T01:45:40.552Z,12.60
2018-06-01T01:50:43.819Z,9.60
2018-06-01T01:55:47.086Z,9.67
2018-06-01T02:00:51.118Z,13.67
2018-06-01T02:05:55.127Z,9.77
2018-06-01T02:10:58.386Z,12.17
2018-06-01T02:16:01.641Z,10.60
2018-06-01T02:21:04.908Z,11.60
2018-06-01T02:26:08.167Z,12.90
2018-06-01T02:31:11.675Z,12.33
2018-06-01T02:36:14.940Z,15.33
2018-06-01T02:41:18.207Z,10.73
2018-06-01T02:46:21.488Z,11.57
2018-06-01T02:51:24.757Z,11.23
2018-06-01T02:56:28.015Z,17.17
2018-06-01T03:01:32.065Z,12.40
2018-06-01T03:06:58.795Z,10.10
2018-06-01T03:12:02.950Z,10.17
2018-06-01T03:17:06.959Z,10.87
2018-06-01T03:22:10.211Z,15.33
2018-06-01T03:27:13.486Z,12.47
2018-06-01T03:32:16.875Z,12.97
2018-06-01T03:37:20.132Z,12.00
2018-06-01T03:42:23.400Z,12.97
2018-06-01T03:47:26.659Z,11.57
2018-06-01T03:52:29.920Z,11.43
2018-06-01T03:57:33.175Z,19.47
2018-06-01T04:02:36.450Z,18.67
2018-06-01T04:07:40.472Z,16.97
2018-06-01T04:12:43.739Z,36.90
2018-06-01T04:17:46.999Z,19.00
2018-06-01T04:22:50.259Z,18.67
2018-06-01T04:27:53.534Z,22.53
2018-06-01T04:32:58.832Z,14.87
2018-06-01T04:38:02.068Z,30.37
2018-06-01T04:43:06.107Z,13.57
2018-06-01T04:48:09.369Z,19.20
2018-06-01T04:53:14.355Z,15.63
2018-06-01T04:58:17.612Z,13.83
2018-06-01T05:03:20.866Z,15.77
2018-06-01T05:08:24.891Z,40.77
2018-06-01T05:13:28.924Z,53.13
2018-06-01T05:18:32.942Z,51.47
2018-06-01T05:23:36.212Z,62.87
2018-06-01T05:28:41.155Z,64.47
2018-06-01T05:33:44.438Z,60.90
2018-06-01T05:38:47.686Z,61.37
2018-06-01T05:43:51.746Z,61.40
2018-06-01T05:48:55.003Z,46.57
2018-06-01T05:53:59.434Z,51.00
2018-06-01T05:59:02.700Z,26.80
2018-06-01T06:04:05.959Z,28.43
2018-06-01T06:09:09.231Z,36.03
2018-06-01T06:14:12.501Z,22.27
2018-06-01T06:19:15.816Z,23.70
2018-06-01T06:24:19.850Z,48.57
2018-06-01T06:29:23.107Z,37.20
2018-06-01T06:34:26.386Z,21.63
2018-06-01T06:39:29.643Z,23.00
2018-06-01T06:44:32.937Z,18.57
2018-06-01T06:49:36.210Z,20.07
2018-06-01T06:54:40.231Z,24.07
2018-06-01T06:59:43.490Z,22.87
2018-06-01T07:04:46.757Z,21.57
2018-06-01T07:09:50.026Z,19.37
2018-06-01T07:14:53.378Z,18.10
2018-06-01T07:19:57.435Z,20.13
2018-06-01T07:25:00.734Z,21.23
2018-06-01T07:30:03.995Z,24.33
2018-06-01T07:35:07.372Z,26.93
2018-06-01T07:40:10.646Z,30.57
2018-06-01T07:45:15.066Z,35.67
2018-06-01T07:50:19.078Z,37.57
2018-06-01T07:55:22.360Z,39.63
2018-06-01T08:00:26.103Z,36.00
2018-06-01T08:05:30.123Z,42.27
2018-06-01T08:10:33.427Z,53.93
2018-06-01T08:15:36.711Z,40.33
2018-06-01T08:20:39.981Z,42.87
2018-06-01T08:25:43.839Z,39.23
2018-06-01T08:30:47.862Z,32.93
2018-06-01T08:35:51.174Z,31.80
2018-06-01T08:40:54.444Z,28.50
2018-06-01T08:45:57.715Z,41.13
2018-06-01T08:51:01.767Z,64.80
2018-06-01T08:56:05.047Z,60.27
2018-06-01T09:01:08.307Z,72.87
2018-06-01T09:06:11.576Z,49.67
2018-06-01T09:11:15.619Z,42.90
2018-06-01T09:16:19.792Z,27.10
2018-06-01T09:21:23.999Z,35.17
2018-06-01T09:26:27.270Z,27.73
2018-06-01T09:31:31.291Z,37.33
2018-06-01T09:36:34.592Z,23.13
2018-06-01T09:41:38.792Z,15.23
2018-06-01T09:46:42.096Z,18.37
2018-06-01T09:51:45.347Z,31.90
2018-06-01T09:56:48.607Z,15.17
2018-06-01T10:01:51.871Z,19.40
2018-06-01T10:06:55.911Z,18.83
2018-06-01T10:11:59.456Z,15.80
2018-06-01T10:17:02.715Z,18.00
2018-06-01T10:22:05.985Z,12.87
2018-06-01T10:27:09.237Z,14.30
2018-06-01T10:32:13.299Z,18.60
2018-06-01T10:37:17.607Z,10.50
2018-06-01T10:42:20.850Z,11.00
2018-06-01T10:47:24.115Z,11.40
2018-06-01T10:52:28.166Z,8.13
2018-06-01T10:57:31.427Z,12.97
2018-06-01T11:02:35.570Z,8.73
2018-06-01T11:07:38.831Z,10.13
2018-06-01T11:12:42.082Z,9.23
2018-06-01T11:17:46.107Z,7.67
2018-06-01T11:22:49.358Z,7.27
2018-06-01T11:27:52.616Z,6.43
2018-06-01T11:32:55.864Z,8.90
2018-06-01T11:37:59.874Z,10.23
2018-06-01T11:43:03.895Z,5.50
2018-06-01T11:48:07.171Z,5.73
2018-06-01T11:53:10.511Z,6.87
2018-06-01T11:58:13.843Z,5.90
2018-06-01T12:03:17.108Z,7.87
2018-06-01T12:08:20.366Z,42.63
2018-06-01T12:13:23.639Z,27.70
2018-06-01T12:18:27.683Z,34.13
2018-06-01T12:23:31.723Z,27.10
2018-06-01T12:28:34.996Z,16.77
2018-06-01T12:33:39.031Z,13.20
2018-06-01T12:38:42.323Z,11.23
2018-06-01T12:43:45.586Z,17.90
2018-06-01T12:48:48.867Z,11.70
2018-06-01T12:53:52.143Z,16.70
2018-06-01T12:58:56.194Z,14.17
2018-06-01T13:03:59.463Z,12.77
2018-06-01T13:09:02.734Z,14.43
2018-06-01T13:14:05.999Z,23.37
2018-06-01T13:19:10.067Z,16.90
2018-06-01T13:24:13.336Z,23.77
2018-06-01T13:29:16.598Z,17.70
2018-06-01T13:34:19.893Z,33.20
2018-06-01T13:39:23.960Z,17.67
2018-06-01T13:44:27.220Z,17.57
2018-06-01T13:49:30.505Z,33.23
2018-06-01T13:54:33.767Z,30.90
2018-06-01T13:59:37.037Z,32.67
2018-06-01T14:04:40.299Z,25.73
2018-06-01T14:09:43.562Z,35.67
2018-06-01T14:14:46.843Z,21.23
2018-06-01T14:19:50.883Z,21.07
2018-06-01T14:24:54.165Z,24.73
2018-06-01T14:29:57.442Z,18.23
2018-06-01T14:35:00.872Z,33.00
2018-06-01T14:40:04.195Z,41.40
2018-06-01T14:45:08.272Z,20.53
2018-06-01T14:50:12.531Z,39.47
2018-06-01T14:55:15.829Z,24.63
2018-06-01T15:00:19.108Z,32.27
2018-06-01T15:05:22.382Z,37.60
2018-06-01T15:10:25.652Z,28.33
2018-06-01T15:15:28.931Z,41.63
2018-06-01T15:20:32.232Z,30.03
2018-06-01T15:25:36.269Z,25.73
2018-06-01T15:30:39.512Z,34.40
2018-06-01T15:35:42.766Z,26.63
2018-06-01T15:40:47.041Z,21.53
2018-06-01T15:45:51.027Z,23.27
2018-06-01T15:50:55.055Z,34.27
2018-06-01T15:55:59.089Z,23.70
2018-06-01T16:01:02.368Z,22.47
2018-06-01T16:06:05.623Z,33.70
2018-06-01T16:11:08.959Z,31.20
2018-06-01T16:16:12.259Z,45.07
2018-06-01T16:21:15.528Z,31.83
2018-06-01T16:26:19.659Z,40.77
2018-06-01T16:31:22.942Z,27.83
2018-06-01T16:36:26.203Z,41.30
2018-06-01T16:41:29.519Z,38.53
2018-06-01T16:46:32.819Z,37.97
2018-06-01T16:51:36.084Z,38.10
2018-06-01T16:56:40.130Z,43.53
2018-06-01T17:01:43.395Z,28.07
2018-06-01T17:06:46.653Z,46.00
2018-06-01T17:11:49.922Z,30.10
2018-06-01T17:16:53.173Z,50.00
2018-06-01T17:21:56.661Z,27.37
2018-06-01T17:27:00.071Z,34.40
2018-06-01T17:32:04.097Z,34.33
2018-06-01T17:37:08.724Z,35.40
2018-06-01T17:42:12.017Z,31.47
2018-06-01T17:47:15.278Z,25.83
2018-06-01T17:52:18.541Z,21.57
2018-06-01T17:57:21.808Z,33.43
2018-06-01T18:02:25.093Z,32.23
2018-06-01T18:07:28.362Z,21.00
2018-06-01T18:12:31.631Z,33.20
2018-06-01T18:17:34.917Z,19.10
2018-06-01T18:22:39.053Z,30.50
2018-06-01T18:27:43.056Z,21.87
2018-06-01T18:32:47.116Z,28.60
2018-06-01T18:37:50.376Z,19.80
2018-06-01T18:42:53.750Z,29.43
2018-06-01T18:47:57.012Z,23.33
2018-06-01T18:53:00.283Z,22.67
2018-06-01T18:58:03.597Z,18.77
2018-06-01T19:03:06.863Z,16.17
2018-06-01T19:08:10.210Z,26.30
2018-06-01T19:13:13.550Z,14.53
2018-06-01T19:18:17.591Z,20.80
2018-06-01T19:23:20.863Z,11.07
2018-06-01T19:28:24.975Z,14.40
2018-06-01T19:33:29.440Z,20.50
2018-06-01T19:38:32.699Z,19.67
2018-06-01T19:43:36.887Z,10.83
2018-06-01T19:48:40.140Z,9.23
2018-06-01T19:53:43.394Z,9.10
2018-06-01T19:58:46.678Z,11.80
2018-06-01T20:03:50.739Z,27.10
2018-06-01T20:08:54.035Z,16.03
2018-06-01T20:13:57.367Z,15.50
2018-06-01T20:19:00.730Z,20.83
2018-06-01T20:24:04.009Z,14.40
2018-06-01T20:29:07.281Z,13.60
2018-06-01T20:34:11.308Z,19.03
2018-06-01T20:39:15.331Z,18.87
2018-06-01T20:44:18.800Z,23.97
2018-06-01T20:49:22.190Z,24.43
2018-06-01T20:54:25.629Z,25.70
2018-06-01T20:59:28.908Z,29.17
2018-06-01T21:04:32.163Z,26.37
2018-06-01T21:09:35.428Z,29.47
2018-06-01T21:14:38.696Z,19.43
2018-06-01T21:19:41.987Z,29.33
2018-06-01T21:24:45.251Z,18.80
2018-06-01T21:29:48.515Z,22.10
2018-06-01T21:34:51.800Z,17.00
2018-06-01T21:39:55.067Z,15.63
2018-06-01T21:44:58.355Z,19.37
2018-06-01T21:50:02.389Z,13.40
2018-06-01T21:55:07.421Z,26.80
2018-06-01T22:00:10.683Z,26.40
2018-06-01T22:05:13.940Z,16.60
2018-06-01T22:10:17.199Z,26.30
2018-06-01T22:15:20.467Z,27.07
2018-06-01T22:20:25.446Z,23.43
2018-06-01T22:25:28.707Z,41.93
2018-06-01T22:30:31.997Z,17.97
2018-06-01T22:35:35.269Z,27.30
2018-06-01T22:40:38.527Z,25.33
2018-06-01T22:45:42.571Z,22.10
2018-06-01T22:50:45.859Z,22.10
2018-06-01T22:55:49.113Z,25.87
2018-06-01T23:00:52.384Z,30.07
2018-06-01T23:05:55.659Z,35.90
2018-06-01T23:10:58.926Z,24.60
2018-06-01T23:16:02.192Z,25.40
2018-06-01T23:21:08.727Z,27.53
2018-06-01T23:26:12.042Z,40.40
2018-06-01T23:31:15.308Z,43.17
2018-06-01T23:36:18.582Z,26.93
2018-06-01T23:41:21.823Z,33.57
2018-06-01T23:46:25.097Z,18.33
2018-06-01T23:51:29.115Z,35.30
2018-06-01T23:56:32.380Z,20.27
